Time;durP1;ratioP1;P1;durP2;ratioP2;P2;SDS_P1;SDS_P2;PMS_P1;PMS_P2;Temp;Humidity;BMP_temperature;BMP_pressure;BME280_temperature;BME280_humidity;BME280_pressure;Samples;Min_cycle;Max_cycle;Signal;HPM_P1;HPM_P2
2022/01/14 04:02:05;;;;;;;84.13;28.50;;;5.20;99.90;;;;;;5219502;23;20051;-82
2022/01/14 04:04:31;;;;;;;78.65;27.63;;;5.20;99.90;;;;;;4976817;28;20035;-80
2022/01/14 04:06:57;;;;;;;85.25;29.73;;;5.20;99.90;;;;;;4976726;28;20035;-80
2022/01/14 04:09:22;;;;;;;75.55;28.60;;;5.20;99.90;;;;;;4977014;28;20097;-78
2022/01/14 04:11:48;;;;;;;80.93;28.05;;;5.30;99.90;;;;;;4976041;28;20504;-80
2022/01/14 04:16:51;;;;;;;78.82;27.33;;;5.30;99.90;;;;;;4976742;28;20058;-82
2022/01/14 04:19:17;;;;;;;90.22;26.98;;;5.30;99.90;;;;;;4976110;28;20039;-78
2022/01/14 04:21:43;;;;;;;80.57;28.85;;;5.20;99.90;;;;;;4975844;28;20097;-78
2022/01/14 04:24:08;;;;;;;81.28;29.83;;;5.30;99.90;;;;;;4976283;28;20089;-81
2022/01/14 04:26:34;;;;;;;88.25;28.33;;;5.20;99.90;;;;;;4975737;28;20097;-79
2022/01/14 04:29:00;;;;;;;83.50;29.13;;;5.20;99.90;;;;;;4960418;28;20387;-80
2022/01/14 04:31:26;;;;;;;80.07;27.75;;;5.20;99.90;;;;;;4975566;28;20055;-81
2022/01/14 04:33:51;;;;;;;81.45;28.30;;;5.20;99.90;;;;;;4975963;28;20038;-80
2022/01/14 04:36:17;;;;;;;78.60;28.85;;;5.20;99.90;;;;;;4976116;28;20046;-78
2022/01/14 04:38:43;;;;;;;75.45;26.77;;;5.20;99.90;;;;;;4975617;28;20427;-80
2022/01/14 04:41:09;;;;;;;75.13;28.33;;;5.20;99.90;;;;;;4975598;28;20039;-79
2022/01/14 04:43:36;;;;;;;78.43;28.58;;;5.20;99.90;;;;;;4959580;28;20046;-79
2022/01/14 04:48:37;;;;;;;80.35;28.73;;;5.20;99.90;;;;;;4975779;28;20491;-82
2022/01/14 04:51:05;;;;;;;69.22;28.30;;;5.20;99.90;;;;;;4959377;28;20475;-77
2022/01/14 04:53:32;;;;;;;68.75;26.77;;;5.20;99.90;;;;;;4975653;28;20486;-80
2022/01/14 04:55:58;;;;;;;76.03;27.13;;;5.20;99.90;;;;;;4976044;28;20078;-80
2022/01/14 04:58:25;;;;;;;68.20;27.83;;;5.20;99.90;;;;;;4975647;28;20411;-78
2022/01/14 05:00:50;;;;;;;68.60;26.85;;;5.20;99.90;;;;;;4975014;28;20043;-80
2022/01/14 05:03:16;;;;;;;71.07;27.55;;;5.20;99.90;;;;;;4975207;28;20049;-82
2022/01/14 05:05:45;;;;;;;75.05;29.60;;;5.20;99.90;;;;;;4975444;28;20046;-81
2022/01/14 05:08:18;;;;;;;63.80;26.85;;;5.20;99.90;;;;;;4975217;28;20074;-79
2022/01/14 05:13:23;;;;;;;78.45;30.52;;;5.20;99.90;;;;;;4975297;28;20050;-78
2022/01/14 05:15:50;;;;;;;62.03;24.33;;;5.20;99.90;;;;;;4975247;28;20368;-77
2022/01/14 05:18:16;;;;;;;68.47;26.63;;;5.20;99.90;;;;;;4975053;28;20086;-80
2022/01/14 05:20:42;;;;;;;63.97;26.58;;;5.20;99.90;;;;;;4959002;28;20082;-80
2022/01/14 05:23:08;;;;;;;63.65;27.95;;;5.20;99.90;;;;;;4974877;28;20406;-82
2022/01/14 05:25:33;;;;;;;67.53;28.15;;;5.20;99.90;;;;;;4974664;28;20043;-79
2022/01/14 05:27:59;;;;;;;63.17;26.65;;;5.20;99.90;;;;;;4958987;28;20423;-79
2022/01/14 05:30:25;;;;;;;62.25;26.90;;;5.20;99.90;;;;;;4974901;28;20050;-82
2022/01/14 05:32:53;;;;;;;63.47;26.65;;;5.20;99.90;;;;;;4974723;28;20084;-80
2022/01/14 05:35:25;;;;;;;62.50;27.67;;;5.20;99.90;;;;;;4976467;28;20050;-80
2022/01/14 05:37:51;;;;;;;67.13;25.75;;;5.20;99.90;;;;;;4975956;28;20039;-78
2022/01/14 05:40:19;;;;;;;61.55;26.30;;;5.20;99.90;;;;;;4974766;28;20039;-80
2022/01/14 05:42:44;;;;;;;60.90;26.02;;;5.20;99.90;;;;;;4974874;28;20050;-81
2022/01/14 05:45:13;;;;;;;63.58;26.23;;;5.20;99.90;;;;;;4974915;28;20039;-82
2022/01/14 05:47:39;;;;;;;62.80;27.13;;;5.20;99.90;;;;;;4958425;28;20042;-80
2022/01/14 05:50:09;;;;;;;66.80;26.45;;;5.20;99.90;;;;;;4975701;28;20034;-80
2022/01/14 05:52:34;;;;;;;58.33;24.40;;;5.20;99.90;;;;;;4974595;28;20046;-81
2022/01/14 05:55:00;;;;;;;57.97;25.20;;;5.20;99.90;;;;;;4974613;28;20394;-80
2022/01/14 05:57:25;;;;;;;56.17;25.98;;;5.20;99.90;;;;;;4974173;28;20098;-81
2022/01/14 05:59:51;;;;;;;68.85;27.65;;;5.20;99.90;;;;;;4974246;28;20407;-79
2022/01/14 06:02:16;;;;;;;65.32;26.13;;;5.20;99.90;;;;;;4974199;28;20035;-79
2022/01/14 06:04:43;;;;;;;65.70;28.08;;;5.20;99.90;;;;;;4974754;28;20042;-81
2022/01/14 06:07:10;;;;;;;61.42;24.98;;;5.20;99.90;;;;;;4974127;28;20155;-82
2022/01/14 06:09:36;;;;;;;60.15;26.58;;;5.20;99.90;;;;;;4957946;28;20487;-81
2022/01/14 06:12:02;;;;;;;62.17;27.48;;;5.20;99.90;;;;;;4974374;28;20046;-83
2022/01/14 06:14:28;;;;;;;64.03;28.33;;;5.20;99.90;;;;;;4957810;28;20038;-80
2022/01/14 06:16:54;;;;;;;69.72;27.58;;;5.20;99.90;;;;;;4973908;28;20043;-78
2022/01/14 06:19:19;;;;;;;58.15;27.17;;;5.20;99.90;;;;;;4973820;28;20518;-82
2022/01/14 06:21:45;;;;;;;72.53;29.05;;;5.20;99.90;;;;;;4973439;28;20039;-80
2022/01/14 06:24:10;;;;;;;61.08;27.80;;;5.20;99.90;;;;;;4974805;28;20161;-78
2022/01/14 06:26:36;;;;;;;63.85;27.98;;;5.20;99.90;;;;;;4973463;28;20550;-83
2022/01/14 06:29:01;;;;;;;61.08;26.23;;;5.20;99.90;;;;;;4973593;28;20039;-79
2022/01/14 06:31:27;;;;;;;80.85;30.42;;;5.20;99.90;;;;;;4973888;28;20190;-80
2022/01/14 06:33:52;;;;;;;60.70;28.60;;;5.20;99.90;;;;;;4973752;28;20042;-81
2022/01/14 06:36:18;;;;;;;67.47;29.27;;;5.20;99.90;;;;;;4973360;28;20038;-78
2022/01/14 06:38:44;;;;;;;59.30;28.38;;;5.20;99.90;;;;;;4974864;28;20142;-80
2022/01/14 06:41:09;;;;;;;68.70;29.92;;;5.20;99.90;;;;;;4957307;28;20484;-82
2022/01/14 06:43:35;;;;;;;65.93;28.67;;;5.30;99.90;;;;;;4973516;28;20074;-78
2022/01/14 06:46:00;;;;;;;58.22;28.40;;;5.30;99.90;;;;;;4973421;28;20402;-79
2022/01/14 06:48:26;;;;;;;54.03;27.40;;;5.30;99.90;;;;;;4973421;28;20046;-80
2022/01/14 06:50:52;;;;;;;57.50;26.45;;;5.30;99.90;;;;;;4973279;28;20046;-81
2022/01/14 06:53:17;;;;;;;60.42;27.75;;;5.40;99.90;;;;;;4974581;28;20451;-80
2022/01/14 06:55:43;;;;;;;59.03;27.05;;;5.40;99.90;;;;;;4973211;28;20081;-80
2022/01/14 06:58:09;;;;;;;57.60;25.48;;;5.50;99.90;;;;;;4973473;28;20113;-80
2022/01/14 07:00:35;;;;;;;51.65;25.08;;;5.50;99.90;;;;;;4957045;28;20151;-82
2022/01/14 07:03:01;;;;;;;53.38;25.55;;;5.60;99.90;;;;;;4974356;28;20387;-84
2022/01/14 07:05:27;;;;;;;51.25;24.05;;;5.60;99.90;;;;;;4974663;28;20045;-80
2022/01/14 07:07:53;;;;;;;46.65;23.70;;;5.60;99.90;;;;;;4973271;28;20398;-80
2022/01/14 07:10:18;;;;;;;49.00;23.88;;;5.60;99.90;;;;;;4973762;28;20039;-81
2022/01/14 07:12:44;;;;;;;50.90;24.85;;;5.70;99.90;;;;;;4972960;28;20092;-79
2022/01/14 07:15:12;;;;;;;45.67;24.63;;;5.60;99.90;;;;;;4957115;28;20361;-82
2022/01/14 07:17:39;;;;;;;49.20;23.83;;;5.70;99.90;;;;;;4973094;28;20173;-80
2022/01/14 07:20:08;;;;;;;54.22;24.02;;;5.70;99.90;;;;;;4973158;28;20062;-78
2022/01/14 07:22:34;;;;;;;51.47;24.38;;;5.70;99.90;;;;;;4973143;28;20519;-80
2022/01/14 07:25:00;;;;;;;46.60;25.38;;;5.70;99.90;;;;;;4957010;28;20039;-81
2022/01/14 07:27:27;;;;;;;40.50;22.67;;;5.70;99.90;;;;;;4973360;28;20361;-79
2022/01/14 07:29:53;;;;;;;55.08;24.90;;;5.70;99.90;;;;;;4973009;28;20038;-80
2022/01/14 07:32:19;;;;;;;50.72;22.98;;;5.70;99.90;;;;;;4973069;28;20384;-80
2022/01/14 07:34:45;;;;;;;46.78;22.17;;;5.70;99.90;;;;;;4972854;28;20034;-81
2022/01/14 07:37:11;;;;;;;48.58;24.13;;;5.70;99.90;;;;;;4973077;28;20172;-80
2022/01/14 07:39:37;;;;;;;48.28;22.48;;;5.70;99.90;;;;;;4973098;28;20130;-78
2022/01/14 07:42:03;;;;;;;50.08;22.15;;;5.80;99.90;;;;;;4957070;28;20588;-79
2022/01/14 07:44:29;;;;;;;48.55;22.52;;;5.70;99.90;;;;;;4973056;28;20043;-82
2022/01/14 07:46:55;;;;;;;48.58;22.25;;;5.80;99.90;;;;;;4973315;28;20102;-81
2022/01/14 07:49:20;;;;;;;48.42;22.13;;;5.80;99.90;;;;;;4972676;28;20039;-81
2022/01/14 07:51:46;;;;;;;49.80;22.02;;;5.80;99.90;;;;;;4972482;28;20043;-81
2022/01/14 07:54:12;;;;;;;48.80;22.20;;;5.80;99.90;;;;;;4972514;28;20038;-78
2022/01/14 07:56:45;;;;;;;45.90;21.52;;;5.80;99.90;;;;;;4972608;28;20042;-81
2022/01/14 07:59:11;;;;;;;45.50;21.20;;;5.80;99.90;;;;;;4973246;28;20078;-78
2022/01/14 08:01:37;;;;;;;57.13;23.50;;;5.80;99.90;;;;;;4972337;28;20051;-80
2022/01/14 08:04:04;;;;;;;46.13;19.70;;;5.80;99.90;;;;;;4956447;28;20118;-82
2022/01/14 08:06:33;;;;;;;50.63;21.98;;;5.80;99.90;;;;;;4974217;28;20173;-82
2022/01/14 08:08:59;;;;;;;53.30;22.02;;;5.80;99.90;;;;;;4975867;28;20502;-80
2022/01/14 08:11:25;;;;;;;54.00;23.27;;;5.80;99.90;;;;;;4976217;28;20043;-81
2022/01/14 08:13:50;;;;;;;48.00;20.83;;;5.80;99.90;;;;;;4977257;28;20041;-82
2022/01/14 08:16:16;;;;;;;49.78;22.05;;;5.90;99.90;;;;;;4976604;28;20430;-79
2022/01/14 08:18:41;;;;;;;46.53;21.63;;;5.80;99.90;;;;;;4976203;28;20491;-81
2022/01/14 08:21:07;;;;;;;53.83;22.65;;;5.80;99.90;;;;;;4976273;28;20047;-80
2022/01/14 08:23:33;;;;;;;50.28;21.58;;;5.90;99.90;;;;;;4976079;28;20042;-80
2022/01/14 08:25:59;;;;;;;44.88;19.83;;;5.80;99.90;;;;;;4975884;28;20129;-79
2022/01/14 08:28:25;;;;;;;42.13;18.92;;;5.90;99.90;;;;;;4959476;28;20447;-79
2022/01/14 08:30:51;;;;;;;43.58;19.23;;;5.90;99.90;;;;;;4959633;28;20095;-81
2022/01/14 08:33:17;;;;;;;52.20;19.58;;;5.90;99.90;;;;;;4976064;28;20086;-76
2022/01/14 08:35:44;;;;;;;47.58;19.50;;;5.90;99.90;;;;;;4959269;28;20122;-79
2022/01/14 08:38:10;;;;;;;40.67;18.02;;;5.90;99.90;;;;;;4977098;28;20372;-81
2022/01/14 08:40:36;;;;;;;37.30;16.67;;;5.90;99.90;;;;;;4975600;28;20049;-79
2022/01/14 08:43:01;;;;;;;38.58;16.98;;;5.90;99.90;;;;;;4975643;28;20391;-81
2022/01/14 08:45:27;;;;;;;42.65;16.48;;;6.00;99.90;;;;;;4975037;28;20086;-80
2022/01/14 08:47:54;;;;;;;44.33;16.80;;;6.00;99.90;;;;;;4975484;28;20043;-82
2022/01/14 08:50:30;;;;;;;40.60;15.85;;;6.00;99.90;;;;;;4976399;28;20096;-78
2022/01/14 08:52:59;;;;;;;40.30;17.55;;;6.00;99.90;;;;;;4975381;28;20046;-81
2022/01/14 08:55:25;;;;;;;38.45;16.48;;;6.00;99.90;;;;;;4976709;28;20042;-79
2022/01/14 08:57:52;;;;;;;40.88;17.08;;;6.10;99.90;;;;;;4979587;28;20035;-80
2022/01/14 09:00:20;;;;;;;32.38;15.25;;;6.10;99.90;;;;;;4963809;28;20117;-81
2022/01/14 09:02:45;;;;;;;39.15;16.00;;;6.10;99.90;;;;;;4980563;28;20388;-80
2022/01/14 09:05:11;;;;;;;41.10;15.02;;;6.10;99.90;;;;;;4977948;28;20046;-80
2022/01/14 09:07:38;;;;;;;33.30;14.25;;;6.10;99.90;;;;;;4975950;28;20152;-79
2022/01/14 09:10:05;;;;;;;37.22;15.30;;;6.10;99.90;;;;;;4975073;28;20043;-81
2022/01/14 09:12:30;;;;;;;38.10;15.02;;;6.20;99.90;;;;;;4970491;28;20038;-80
2022/01/14 09:14:56;;;;;;;37.35;14.73;;;6.20;99.90;;;;;;4936943;29;20047;-78
2022/01/14 09:17:22;;;;;;;31.00;13.85;;;6.20;99.90;;;;;;4936363;29;20492;-82
2022/01/14 09:19:47;;;;;;;36.67;14.55;;;6.20;99.90;;;;;;4936378;29;20523;-78
2022/01/14 09:22:18;;;;;;;32.30;13.90;;;6.30;99.90;;;;;;4936142;29;20087;-81
2022/01/14 09:24:45;;;;;;;32.22;13.45;;;6.30;99.90;;;;;;4936375;29;20067;-79
2022/01/14 09:27:12;;;;;;;30.27;13.15;;;6.30;99.90;;;;;;4936242;29;20555;-79
2022/01/14 09:29:38;;;;;;;33.08;14.27;;;6.30;99.90;;;;;;4936169;29;20039;-81
2022/01/14 09:32:05;;;;;;;31.67;13.38;;;6.30;99.90;;;;;;4936317;29;20039;-82
2022/01/14 09:34:31;;;;;;;32.28;13.00;;;6.40;99.90;;;;;;4920314;29;20040;-82
2022/01/14 09:36:57;;;;;;;37.25;12.98;;;6.40;99.90;;;;;;4936304;29;20074;-80
2022/01/14 09:39:25;;;;;;;30.45;12.45;;;6.40;99.90;;;;;;4935946;29;20044;-82
2022/01/14 09:41:51;;;;;;;29.08;11.35;;;6.40;99.90;;;;;;4935712;29;20492;-79
2022/01/14 09:44:20;;;;;;;31.27;12.10;;;6.40;99.90;;;;;;4935660;29;20119;-82
2022/01/14 09:46:50;;;;;;;26.98;10.88;;;6.40;99.90;;;;;;4935683;29;20104;-83
2022/01/14 09:49:16;;;;;;;27.42;11.13;;;6.40;99.90;;;;;;4935718;29;20044;-82
2022/01/14 09:51:43;;;;;;;29.50;11.43;;;6.50;99.90;;;;;;4935495;29;20044;-81
2022/01/14 09:54:10;;;;;;;30.75;11.80;;;6.50;99.90;;;;;;4935683;29;20055;-83
2022/01/14 09:56:37;;;;;;;27.27;10.93;;;6.60;99.90;;;;;;4935712;29;20043;-83
2022/01/14 09:59:04;;;;;;;35.58;12.77;;;6.60;99.90;;;;;;4935640;29;20515;-80
2022/01/14 10:01:46;;;;;;;23.98;11.02;;;6.60;99.90;;;;;;4919626;29;20373;-83
2022/01/14 10:04:18;;;;;;;24.45;10.05;;;6.60;99.90;;;;;;4935551;29;20072;-80
2022/01/14 10:06:51;;;;;;;20.00;10.13;;;6.60;99.90;;;;;;4935443;29;20496;-81
2022/01/14 10:09:39;;;;;;;33.75;10.80;;;6.70;99.90;;;;;;4919845;29;20391;-83
2022/01/14 10:12:16;;;;;;;25.05;9.05;;;6.70;99.90;;;;;;4935284;29;20036;-83
2022/01/14 10:14:51;;;;;;;23.52;9.18;;;6.70;99.90;;;;;;4919590;29;20079;-81
2022/01/14 10:17:17;;;;;;;23.15;8.57;;;6.80;99.90;;;;;;4935308;29;20048;-82
2022/01/14 10:19:45;;;;;;;22.58;9.88;;;6.80;99.90;;;;;;4919736;29;20043;-82
2022/01/14 10:22:22;;;;;;;19.15;8.25;;;6.90;99.90;;;;;;4935105;29;20051;-81
2022/01/14 10:25:01;;;;;;;24.88;8.80;;;6.90;99.90;;;;;;4935143;29;20036;-80
2022/01/14 10:27:37;;;;;;;24.08;9.02;;;6.90;99.90;;;;;;4934961;29;20123;-81
2022/01/14 10:30:12;;;;;;;17.02;6.63;;;6.90;99.90;;;;;;4934414;29;20448;-81
2022/01/14 10:32:38;;;;;;;18.15;7.68;;;6.90;99.90;;;;;;4918883;29;20493;-83
2022/01/14 10:35:10;;;;;;;18.20;6.75;;;6.90;99.90;;;;;;4935250;29;20043;-82
2022/01/14 10:37:37;;;;;;;19.50;8.80;;;6.90;99.90;;;;;;4919503;29;20047;-80
2022/01/14 10:40:23;;;;;;;24.02;10.82;;;7.00;99.90;;;;;;4935122;29;20039;-81
2022/01/14 10:42:51;;;;;;;16.25;6.03;;;7.00;99.90;;;;;;4919454;29;20055;-80
2022/01/14 10:45:23;;;;;;;22.30;6.45;;;7.00;99.90;;;;;;4935914;29;20376;-82
2022/01/14 10:48:02;;;;;;;18.90;6.63;;;7.00;99.90;;;;;;4935060;29;20043;-81
2022/01/14 10:50:32;;;;;;;19.25;6.72;;;7.00;99.90;;;;;;4935857;29;20118;-83
2022/01/14 10:52:58;;;;;;;20.85;7.75;;;7.00;99.90;;;;;;4935871;29;20035;-78
2022/01/14 10:55:30;;;;;;;19.75;7.15;;;7.10;99.90;;;;;;4934735;29;20050;-80
2022/01/14 10:57:57;;;;;;;17.95;6.60;;;7.10;99.90;;;;;;4935209;29;20048;-78
2022/01/14 11:00:24;;;;;;;15.48;6.43;;;7.10;99.90;;;;;;4934606;29;20130;-83
2022/01/14 11:02:53;;;;;;;27.45;10.70;;;7.10;99.90;;;;;;4934295;29;20138;-78
2022/01/14 11:05:23;;;;;;;35.40;16.83;;;7.10;99.90;;;;;;4935375;29;20055;-83
2022/01/14 11:07:51;;;;;;;41.92;19.63;;;7.10;99.90;;;;;;4934709;29;20488;-83
2022/01/14 11:10:24;;;;;;;17.25;7.00;;;7.20;99.90;;;;;;4934931;29;20526;-79
2022/01/14 11:12:51;;;;;;;24.58;8.52;;;7.10;99.90;;;;;;4934721;29;20062;-79
2022/01/14 11:15:17;;;;;;;35.38;14.35;;;7.10;99.90;;;;;;4935084;29;20413;-84
2022/01/14 11:17:46;;;;;;;19.98;7.18;;;7.20;99.90;;;;;;4934642;29;20058;-79
2022/01/14 11:20:13;;;;;;;20.90;7.50;;;7.20;99.90;;;;;;4934768;29;20438;-78
2022/01/14 11:25:23;;;;;;;15.77;6.53;;;7.20;99.90;;;;;;4934444;29;20056;-81
2022/01/14 11:27:56;;;;;;;16.67;6.65;;;7.20;99.90;;;;;;4934756;29;20099;-82
2022/01/14 11:30:35;;;;;;;21.88;6.30;;;7.30;99.90;;;;;;4934363;29;20555;-81
2022/01/14 11:33:03;;;;;;;14.43;5.80;;;7.20;99.90;;;;;;4918675;29;20122;-80
2022/01/14 11:35:32;;;;;;;15.77;5.93;;;7.20;99.90;;;;;;4934403;29;20078;-78
2022/01/14 11:37:58;;;;;;;16.88;6.38;;;7.20;99.90;;;;;;4934648;29;20055;-78
2022/01/14 11:40:24;;;;;;;19.25;5.55;;;7.20;99.90;;;;;;4934649;29;20138;-79
2022/01/14 11:42:58;;;;;;;23.85;6.25;;;7.10;99.90;;;;;;4938086;29;20463;-78
2022/01/14 11:45:42;;;;;;;19.40;5.68;;;7.10;99.90;;;;;;4938548;29;20056;-77
2022/01/14 11:48:08;;;;;;;21.15;5.93;;;7.10;99.90;;;;;;4937773;29;20055;-81
2022/01/14 11:50:43;;;;;;;14.98;4.90;;;7.10;99.90;;;;;;4953698;29;20105;-78
2022/01/14 11:53:32;;;;;;;22.13;6.43;;;7.10;99.90;;;;;;4939012;29;20043;-78
2022/01/14 11:55:57;;;;;;;23.15;6.13;;;7.20;99.90;;;;;;4956794;29;20047;-79
2022/01/14 11:58:23;;;;;;;20.38;5.95;;;7.20;99.90;;;;;;4956337;29;20043;-80
2022/01/14 12:00:49;;;;;;;25.05;6.28;;;7.20;99.90;;;;;;4955134;29;20130;-77
2022/01/14 12:03:25;;;;;;;20.45;6.38;;;7.20;99.90;;;;;;4956524;29;20043;-83
2022/01/14 12:06:05;;;;;;;22.20;6.13;;;7.20;99.90;;;;;;4955217;29;20503;-82
2022/01/14 12:08:39;;;;;;;16.08;5.75;;;7.20;99.90;;;;;;4956559;29;20416;-82
2022/01/14 12:11:05;;;;;;;15.50;4.77;;;7.20;99.90;;;;;;4940951;29;20391;-83
2022/01/14 12:16:18;;;;;;;17.50;4.90;;;7.20;99.90;;;;;;4956684;29;20058;-80
2022/01/14 12:18:59;;;;;;;15.65;4.30;;;7.20;99.90;;;;;;4956500;29;20094;-79
2022/01/14 12:21:43;;;;;;;21.17;4.82;;;7.20;99.90;;;;;;4956554;29;20481;-80
2022/01/14 12:24:14;;;;;;;14.82;4.40;;;7.20;99.90;;;;;;4956431;29;20158;-81
2022/01/14 12:26:52;;;;;;;21.25;4.97;;;7.20;99.90;;;;;;4955339;29;20098;-80
2022/01/14 12:29:32;;;;;;;18.83;4.80;;;7.30;99.90;;;;;;4941910;29;20074;-82
2022/01/14 12:32:05;;;;;;;15.00;4.35;;;7.30;99.90;;;;;;4956231;29;20563;-82
2022/01/14 12:34:32;;;;;;;15.50;4.63;;;7.30;99.90;;;;;;4956305;29;20054;-80
2022/01/14 12:36:57;;;;;;;19.70;5.38;;;7.30;99.90;;;;;;4956499;29;20051;-82
2022/01/14 12:39:23;;;;;;;18.10;4.43;;;7.30;99.90;;;;;;4957274;29;20102;-80
2022/01/14 12:41:53;;;;;;;17.73;4.75;;;7.20;99.90;;;;;;4956216;29;20105;-79
2022/01/14 12:44:21;;;;;;;23.45;5.50;;;7.30;99.90;;;;;;4955872;29;20036;-78
2022/01/14 12:49:22;;;;;;;19.92;5.78;;;7.20;99.90;;;;;;4956638;29;20145;-82
2022/01/14 12:52:11;;;;;;;24.50;7.30;;;7.20;99.90;;;;;;4957058;28;20039;-82
2022/01/14 12:54:38;;;;;;;19.88;6.90;;;7.20;99.90;;;;;;4955802;29;20059;-79
2022/01/14 12:57:04;;;;;;;14.05;5.50;;;7.20;99.90;;;;;;4956078;29;20193;-81
2022/01/14 12:59:43;;;;;;;16.10;5.88;;;7.20;99.90;;;;;;4956395;29;20054;-82
2022/01/14 13:02:31;;;;;;;21.05;6.30;;;7.20;99.90;;;;;;4955322;29;20054;-81
2022/01/14 13:05:07;;;;;;;17.88;5.55;;;7.20;99.90;;;;;;4937809;29;20587;-79
2022/01/14 13:07:35;;;;;;;15.85;5.75;;;7.20;99.90;;;;;;4939150;29;20047;-79
2022/01/14 13:10:03;;;;;;;20.73;6.47;;;7.20;99.90;;;;;;4956803;29;20131;-79
2022/01/14 13:12:34;;;;;;;26.92;8.70;;;7.20;99.90;;;;;;4958922;29;20035;-79
2022/01/14 13:15:03;;;;;;;24.40;8.13;;;7.20;99.90;;;;;;4959754;28;20039;-77
2022/01/14 13:17:35;;;;;;;18.00;6.85;;;7.20;99.90;;;;;;4959620;29;20055;-73
2022/01/14 13:20:07;;;;;;;24.60;7.80;;;7.20;99.90;;;;;;4927518;29;20048;-81
2022/01/14 13:22:33;;;;;;;27.45;10.35;;;7.20;99.90;;;;;;4950839;29;20499;-79
2022/01/14 13:25:02;;;;;;;26.38;10.10;;;7.20;99.90;;;;;;4940356;29;20480;-83
2022/01/14 13:27:40;;;;;;;23.75;6.88;;;7.20;99.90;;;;;;4936879;29;20036;-81
2022/01/14 13:30:11;;;;;;;20.45;6.15;;;7.20;99.90;;;;;;4936193;29;20087;-81
2022/01/14 13:32:37;;;;;;;18.02;6.78;;;7.20;99.90;;;;;;4935352;29;20555;-79
2022/01/14 13:35:20;;;;;;;22.60;5.82;;;7.20;99.90;;;;;;4936002;29;20127;-81
2022/01/14 13:37:47;;;;;;;23.60;7.53;;;7.30;99.90;;;;;;4935997;29;20087;-80
2022/01/14 13:40:18;;;;;;;23.08;6.93;;;7.20;99.90;;;;;;4935661;29;20043;-82
2022/01/14 13:42:47;;;;;;;25.30;8.00;;;7.30;99.90;;;;;;4949370;29;20150;-82
2022/01/14 13:45:24;;;;;;;24.33;7.68;;;7.30;99.90;;;;;;4935748;29;20040;-79
2022/01/14 13:48:23;;;;;;;22.45;6.97;;;7.30;99.90;;;;;;4935569;29;20051;-79
2022/01/14 13:50:53;;;;;;;26.08;9.10;;;7.30;99.90;;;;;;4919609;29;20032;-79
2022/01/14 13:53:27;;;;;;;23.90;7.53;;;7.30;99.90;;;;;;4935595;29;20040;-78
2022/01/14 13:56:03;;;;;;;21.70;7.05;;;7.30;99.90;;;;;;4937190;29;20082;-82
2022/01/14 13:58:29;;;;;;;21.40;7.40;;;7.30;99.90;;;;;;4947614;29;20039;-81
2022/01/14 14:00:57;;;;;;;32.03;9.20;;;7.30;99.90;;;;;;4935170;29;20091;-82
2022/01/14 14:03:37;;;;;;;21.63;7.85;;;7.30;99.90;;;;;;4935138;29;20479;-81
2022/01/14 14:06:07;;;;;;;22.08;7.75;;;7.30;99.90;;;;;;4934870;29;20054;-79
2022/01/14 14:08:42;;;;;;;23.77;7.07;;;7.30;99.90;;;;;;4934415;29;20091;-79
2022/01/14 14:17:04;;;;;;;21.27;7.07;;;7.30;99.90;;;;;;4934913;29;20040;-79
2022/01/14 14:19:41;;;;;;;27.13;7.65;;;7.30;99.90;;;;;;4934932;29;20123;-81
2022/01/14 14:22:32;;;;;;;28.02;8.52;;;7.20;99.90;;;;;;4934912;29;20048;-80
2022/01/14 14:25:05;;;;;;;22.73;8.65;;;7.20;99.90;;;;;;4934739;29;20106;-81
2022/01/14 14:27:32;;;;;;;19.95;7.65;;;7.20;99.90;;;;;;4934982;29;20464;-80
2022/01/14 14:30:01;;;;;;;20.02;6.65;;;7.20;99.90;;;;;;4929242;29;20043;-79
2022/01/14 14:32:34;;;;;;;22.20;6.15;;;7.30;99.90;;;;;;4940051;28;20048;-79
2022/01/14 14:35:04;;;;;;;26.42;7.07;;;7.20;99.90;;;;;;4935083;29;20075;-79
2022/01/14 14:37:33;;;;;;;24.00;8.98;;;7.30;99.90;;;;;;4935163;29;20038;-81
2022/01/14 14:40:00;;;;;;;24.08;8.45;;;7.20;99.90;;;;;;4927733;29;20490;-80
2022/01/14 14:42:26;;;;;;;30.55;11.45;;;7.20;99.90;;;;;;4942032;28;20118;-82
2022/01/14 14:44:51;;;;;;;27.20;10.73;;;7.20;99.90;;;;;;4934551;29;20079;-79
2022/01/14 14:47:17;;;;;;;25.35;9.55;;;7.20;99.90;;;;;;4934409;29;20087;-81
2022/01/14 14:49:43;;;;;;;27.77;10.00;;;7.20;99.90;;;;;;4934732;29;20071;-79
2022/01/14 14:52:09;;;;;;;31.70;11.40;;;7.20;99.90;;;;;;4934443;29;20436;-80
2022/01/14 14:54:35;;;;;;;29.70;9.05;;;7.20;99.90;;;;;;4935816;29;20047;-80
2022/01/14 14:57:01;;;;;;;33.78;9.43;;;7.20;99.90;;;;;;4944486;28;20445;-80
2022/01/14 14:59:27;;;;;;;30.35;10.00;;;7.10;99.90;;;;;;4949415;29;20086;-83
2022/01/14 15:01:53;;;;;;;31.48;8.90;;;7.10;99.90;;;;;;4945933;29;20043;-81
2022/01/14 15:04:19;;;;;;;39.97;12.35;;;7.10;99.90;;;;;;4942493;29;20039;-79
2022/01/14 15:06:44;;;;;;;42.65;12.27;;;7.10;99.90;;;;;;4923410;29;20063;-78
2022/01/14 15:09:10;;;;;;;41.78;11.05;;;7.10;99.90;;;;;;4951685;29;20031;-82
2022/01/14 15:11:36;;;;;;;38.95;10.70;;;7.10;99.90;;;;;;4948540;29;20102;-81
2022/01/14 15:14:03;;;;;;;32.28;9.60;;;7.10;99.90;;;;;;4934556;29;20435;-81
2022/01/14 15:19:13;;;;;;;46.13;10.38;;;7.10;99.90;;;;;;4938265;29;20048;-81
2022/01/14 15:21:39;;;;;;;39.90;10.52;;;7.10;99.90;;;;;;4922294;29;20054;-80
2022/01/14 15:24:05;;;;;;;33.97;9.18;;;7.10;99.90;;;;;;4938041;29;20047;-78
2022/01/14 15:26:32;;;;;;;30.85;9.93;;;7.10;99.90;;;;;;4946938;29;20420;-82
2022/01/14 15:28:58;;;;;;;34.10;9.80;;;7.10;99.90;;;;;;4937572;29;20055;-79
2022/01/14 15:31:25;;;;;;;36.47;10.15;;;7.10;99.90;;;;;;4937596;29;20043;-81
2022/01/14 15:33:51;;;;;;;43.90;10.65;;;7.10;99.90;;;;;;4938087;29;20098;-78
2022/01/14 15:36:16;;;;;;;43.30;10.27;;;7.10;99.90;;;;;;4937547;29;20492;-78
2022/01/14 15:38:42;;;;;;;43.03;10.05;;;7.10;99.90;;;;;;4921857;29;20090;-80
2022/01/14 15:41:08;;;;;;;33.13;10.13;;;7.10;99.90;;;;;;4937698;29;20094;-80
2022/01/14 15:43:34;;;;;;;34.00;10.32;;;7.10;99.90;;;;;;4937427;29;20127;-81
2022/01/14 15:46:02;;;;;;;42.20;10.90;;;7.10;99.90;;;;;;4936576;29;20091;-78
2022/01/14 15:48:28;;;;;;;39.30;10.88;;;7.10;99.90;;;;;;4937464;29;20066;-78
2022/01/14 15:50:54;;;;;;;49.45;12.10;;;7.10;99.90;;;;;;4937401;29;20044;-80
2022/01/14 15:53:20;;;;;;;46.63;13.25;;;7.10;99.90;;;;;;4921316;29;20131;-77
2022/01/14 15:55:46;;;;;;;51.97;13.95;;;7.10;99.90;;;;;;4937634;29;20499;-79
2022/01/14 15:58:12;;;;;;;46.45;13.85;;;7.10;99.90;;;;;;4947041;29;20039;-78
2022/01/14 16:00:38;;;;;;;47.42;14.45;;;7.00;99.90;;;;;;4956533;28;20051;-81
2022/01/14 16:03:04;;;;;;;47.83;16.15;;;7.00;99.90;;;;;;4956854;29;20492;-79
2022/01/14 16:05:30;;;;;;;46.92;14.55;;;7.00;99.90;;;;;;4940566;29;20070;-79
2022/01/14 16:07:56;;;;;;;53.75;15.68;;;7.00;99.90;;;;;;4955333;29;20130;-80
2022/01/14 16:10:22;;;;;;;55.75;15.75;;;7.00;99.90;;;;;;4955477;29;20039;-80
2022/01/14 16:12:50;;;;;;;57.00;16.75;;;7.00;99.90;;;;;;4955643;29;20454;-80
2022/01/14 16:15:17;;;;;;;44.45;14.50;;;7.00;99.90;;;;;;4955756;28;20485;-78
2022/01/14 16:17:43;;;;;;;42.03;11.52;;;7.00;99.90;;;;;;4956234;28;20126;-79
2022/01/14 16:20:11;;;;;;;46.95;12.70;;;7.00;99.90;;;;;;4955422;29;20150;-77
2022/01/14 16:22:38;;;;;;;48.53;12.77;;;7.00;99.90;;;;;;4956880;28;20047;-78
2022/01/14 16:25:05;;;;;;;37.75;12.18;;;7.00;99.90;;;;;;4939364;29;20055;-79
2022/01/14 16:27:30;;;;;;;56.08;13.73;;;6.90;99.90;;;;;;4938529;29;20581;-81
2022/01/14 16:29:57;;;;;;;38.45;12.77;;;6.90;99.90;;;;;;4956720;29;20078;-80
2022/01/14 16:32:24;;;;;;;45.60;14.32;;;6.90;99.90;;;;;;4955547;28;20046;-80
2022/01/14 16:34:51;;;;;;;53.15;14.18;;;6.90;99.90;;;;;;4955314;29;20484;-79
2022/01/14 16:37:19;;;;;;;48.47;15.00;;;6.90;99.90;;;;;;4955248;28;20047;-77
2022/01/14 16:39:46;;;;;;;38.33;14.15;;;6.90;99.90;;;;;;4955128;29;20496;-78
2022/01/14 16:42:14;;;;;;;44.92;12.82;;;6.80;99.90;;;;;;4955382;29;20436;-81
2022/01/14 16:44:43;;;;;;;47.13;14.15;;;6.90;99.90;;;;;;4955197;29;20054;-79
2022/01/14 16:47:10;;;;;;;42.22;12.98;;;6.90;99.90;;;;;;4939607;29;20043;-77
2022/01/14 16:49:37;;;;;;;49.28;14.77;;;6.80;99.90;;;;;;4956414;29;20657;-78
2022/01/14 16:52:05;;;;;;;39.45;12.38;;;6.80;99.90;;;;;;4955368;29;20075;-79
2022/01/14 16:54:32;;;;;;;52.13;14.77;;;6.80;99.90;;;;;;4954958;29;20078;-79
2022/01/14 16:56:58;;;;;;;43.00;14.52;;;6.80;99.90;;;;;;4956192;28;20045;-80
2022/01/14 16:59:23;;;;;;;38.28;13.27;;;6.80;99.90;;;;;;4920004;29;20043;-80
2022/01/14 17:01:49;;;;;;;48.83;14.38;;;6.80;99.90;;;;;;4935842;29;20044;-78
2022/01/14 17:04:15;;;;;;;42.70;14.20;;;6.80;99.90;;;;;;4935544;29;20043;-79
2022/01/14 17:06:42;;;;;;;46.30;15.13;;;6.80;99.90;;;;;;4935481;29;20074;-79
2022/01/14 17:09:07;;;;;;;43.38;14.80;;;6.80;99.90;;;;;;4919987;29;20039;-79
2022/01/14 17:11:37;;;;;;;52.65;15.18;;;6.80;99.90;;;;;;4937021;29;20047;-78